Haukur — OZ2119 — position and weather

sailwx.info

Track history (hours):
 
Tides and Currents Weather Stations Pressure Air Temp Water Temp Dewpoint Dewpoint Depression Visibility Wind Speed Wind Dir Waves Ship Positions

Haukur

Last reported at 2015-Aug-28 06:33 UTC. Time now 2015-Aug-30 15:59 UTC.
Position N 55°02' E 019°37'.

Length 75 m; draft 3.9 m.

Type: Cargo ship. MMSI: 231812000.

Date/timePositionNaut miles runAvg speedWind from/ knotsBaromVisibWave heightAir tempDewpointWater temp
2015-Aug-28 06:33N 55°02' E 019°37'1010.2
2015-Aug-28 05:33N 54°55' E 019°24'10 9.9
2015-Aug-28 04:33N 54°48' E 019°12'1010.4
2015-Aug-28 03:33N 54°41' E 018°59'1110.5
2015-Aug-28 02:33N 54°32' E 018°49'9 9.2
2015-Aug-28 01:33N 54°25' E 018°40'2 1.7
2015-Aug-28 00:33N 54°23' E 018°40'0 0.0
2015-Aug-27 23:33N 54°23' E 018°40'0 0.0
2015-Aug-27 22:33N 54°23' E 018°40'0 0.0
2015-Aug-27 21:33N 54°23' E 018°40'0 0.0
2015-Aug-27 20:33N 54°23' E 018°40'0 0.0
2015-Aug-27 19:33N 54°23' E 018°40'0 0.0
2015-Aug-27 18:33N 54°23' E 018°40'0 0.0
2015-Aug-27 17:33N 54°23' E 018°40'0 0.0
2015-Aug-27 16:34N 54°23' E 018°40'0 0.0
2015-Aug-27 15:33N 54°23' E 018°40'0 0.0
2015-Aug-27 14:34N 54°23' E 018°40'0 0.0
2015-Aug-27 13:34N 54°23' E 018°40'0 0.0
2015-Aug-27 12:33N 54°23' E 018°40'0 0.0
2015-Aug-27 11:33N 54°23' E 018°40'0 0.0
2015-Aug-27 10:33N 54°23' E 018°40'3 3.1
2015-Aug-27 09:33N 54°26' E 018°39'8 8.3
2015-Aug-27 08:33N 54°32' E 018°49'9 8.5
2015-Aug-27 07:33N 54°40' E 018°56'8 7.8
2015-Aug-27 06:34N 54°44' E 018°45'8 8.1
2015-Aug-27 05:33N 54°49' E 018°33'9 8.7
2015-Aug-27 04:34N 54°53' E 018°21'9 8.9
2015-Aug-27 03:33N 54°56' E 018°06'9 8.8
2015-Aug-27 02:33N 54°58' E 017°51'9 9.0
2015-Aug-27 01:33N 55°00' E 017°36'9 9.0
2015-Aug-27 00:33N 55°02' E 017°20'30 8.7
2015-Aug-26 21:06N 55°10' E 016°30'8 8.9
2015-Aug-26 20:13N 55°12' E 016°16'6 9.0
2015-Aug-26 19:32N 55°13' E 016°06'9 9.1
2015-Aug-26 18:33N 55°16' E 015°51'9 9.0
2015-Aug-26 17:33N 55°18' E 015°35'9 8.7
2015-Aug-26 16:34N 55°20' E 015°21'9 8.8
2015-Aug-26 15:34N 55°22' E 015°06'9 9.1
2015-Aug-26 14:34N 55°23' E 014°50'8 7.9
2015-Aug-26 13:34N 55°22' E 014°36'9 8.7
2015-Aug-26 12:34N 55°15' E 014°27'8 8.3
2015-Aug-26 11:33N 55°10' E 014°15'9 9.1
2015-Aug-26 10:34N 55°11' E 013°59'9 9.1
2015-Aug-26 09:34N 55°12' E 013°43'9 8.9
2015-Aug-26 08:32N 55°13' E 013°28'9 8.8
2015-Aug-26 07:33N 55°14' E 013°13'9 8.9
2015-Aug-26 06:33N 55°15' E 012°57'9 8.7
2015-Aug-26 05:33N 55°17' E 012°42'7 6.9
2015-Aug-26 04:33N 55°24' E 012°39'9 8.8
2015-Aug-26 03:34N 55°32' E 012°42'10 9.5
2015-Aug-26 02:34N 55°42' E 012°41'9 8.8
2015-Aug-26 01:33N 55°51' E 012°39'9 8.7
2015-Aug-26 00:34N 55°59' E 012°38'8 8.2
2015-Aug-25 23:33N 56°07' E 012°31'9 8.9
2015-Aug-25 22:34N 56°12' E 012°18'9 8.7
2015-Aug-25 21:34N 56°17' E 012°05'8 7.7
2015-Aug-25 20:32N 56°24' E 012°00'7 7.3
2015-Aug-25 19:33N 56°31' E 011°57'7 7.3
2015-Aug-25 18:33N 56°38' E 011°55'7 7.2
2015-Aug-25 17:33N 56°45' E 011°52'8 8.1
2015-Aug-25 16:34N 56°53' E 011°46'8 7.6
2015-Aug-25 15:34N 57°00' E 011°42'8 7.7
2015-Aug-25 14:34N 57°08' E 011°37'8 8.2
2015-Aug-25 13:33N 57°15' E 011°32'8 8.2
2015-Aug-25 12:33N 57°23' E 011°27'8 7.7
2015-Aug-25 11:33N 57°30' E 011°21'8 7.7
2015-Aug-25 10:34N 57°35' E 011°09'8 7.6
2015-Aug-25 09:33N 57°40' E 010°59'8 7.5
2015-Aug-25 08:34N 57°45' E 010°49'6 6.4
2015-Aug-25 07:33N 57°47' E 010°38'7 7.0
2015-Aug-25 06:33N 57°48' E 010°25'126 6.6
2015-Aug-24 11:34N 58°05' E 006°30'7 6.8
2015-Aug-24 10:33N 58°10' E 006°20'7 6.9
2015-Aug-24 09:33N 58°14' E 006°10'6 6.4
2015-Aug-24 08:33N 58°18' E 006°00'6 6.1
2015-Aug-24 07:33N 58°22' E 005°51'22 7.2
2015-Aug-24 04:28N 58°39' E 005°23'6 6.8
2015-Aug-24 03:33N 58°44' E 005°16'8 7.7
2015-Aug-24 02:33N 58°50' E 005°08'9 8.6
2015-Aug-24 01:34N 58°58' E 004°59'8 7.8
2015-Aug-24 00:34N 59°04' E 004°52'7 7.4
2015-Aug-23 23:34N 59°11' E 004°44'9 8.8
2015-Aug-23 22:33N 59°19' E 004°40'32 8.0
2015-Aug-23 18:33N 59°51' E 004°40'8 7.9
2015-Aug-23 17:32N 59°59' E 004°40'  
Track history (hours):
 
Tides and Currents Weather Stations Pressure Air Temp Water Temp Dewpoint Dewpoint Depression Visibility Wind Speed Wind Dir Waves Ship Positions

Haukur

Last reported at 2015-Aug-28 06:33 UTC. Time now 2015-Aug-30 15:59 UTC.
Position N 55°02' E 019°37'.

Length 75 m; draft 3.9 m.

Type: Cargo ship. MMSI: 231812000.

Date/timePositionNaut miles runAvg speedWind from/ knotsBaromVisibWave heightAir tempDewpointWater temp
2015-Aug-28 06:33N 55°02' E 019°37'1010.2
2015-Aug-28 05:33N 54°55' E 019°24'10 9.9
2015-Aug-28 04:33N 54°48' E 019°12'1010.4
2015-Aug-28 03:33N 54°41' E 018°59'1110.5
2015-Aug-28 02:33N 54°32' E 018°49'9 9.2
2015-Aug-28 01:33N 54°25' E 018°40'2 1.7
2015-Aug-28 00:33N 54°23' E 018°40'0 0.0
2015-Aug-27 23:33N 54°23' E 018°40'0 0.0
2015-Aug-27 22:33N 54°23' E 018°40'0 0.0
2015-Aug-27 21:33N 54°23' E 018°40'0 0.0
2015-Aug-27 20:33N 54°23' E 018°40'0 0.0
2015-Aug-27 19:33N 54°23' E 018°40'0 0.0
2015-Aug-27 18:33N 54°23' E 018°40'0 0.0
2015-Aug-27 17:33N 54°23' E 018°40'0 0.0
2015-Aug-27 16:34N 54°23' E 018°40'0 0.0
2015-Aug-27 15:33N 54°23' E 018°40'0 0.0
2015-Aug-27 14:34N 54°23' E 018°40'0 0.0
2015-Aug-27 13:34N 54°23' E 018°40'0 0.0
2015-Aug-27 12:33N 54°23' E 018°40'0 0.0
2015-Aug-27 11:33N 54°23' E 018°40'0 0.0
2015-Aug-27 10:33N 54°23' E 018°40'3 3.1
2015-Aug-27 09:33N 54°26' E 018°39'8 8.3
2015-Aug-27 08:33N 54°32' E 018°49'9 8.5
2015-Aug-27 07:33N 54°40' E 018°56'8 7.8
2015-Aug-27 06:34N 54°44' E 018°45'8 8.1
2015-Aug-27 05:33N 54°49' E 018°33'9 8.7
2015-Aug-27 04:34N 54°53' E 018°21'9 8.9
2015-Aug-27 03:33N 54°56' E 018°06'9 8.8
2015-Aug-27 02:33N 54°58' E 017°51'9 9.0
2015-Aug-27 01:33N 55°00' E 017°36'9 9.0
2015-Aug-27 00:33N 55°02' E 017°20'30 8.7
2015-Aug-26 21:06N 55°10' E 016°30'8 8.9
2015-Aug-26 20:13N 55°12' E 016°16'6 9.0
2015-Aug-26 19:32N 55°13' E 016°06'9 9.1
2015-Aug-26 18:33N 55°16' E 015°51'9 9.0
2015-Aug-26 17:33N 55°18' E 015°35'9 8.7
2015-Aug-26 16:34N 55°20' E 015°21'9 8.8
2015-Aug-26 15:34N 55°22' E 015°06'9 9.1
2015-Aug-26 14:34N 55°23' E 014°50'8 7.9
2015-Aug-26 13:34N 55°22' E 014°36'9 8.7
2015-Aug-26 12:34N 55°15' E 014°27'8 8.3
2015-Aug-26 11:33N 55°10' E 014°15'9 9.1
2015-Aug-26 10:34N 55°11' E 013°59'9 9.1
2015-Aug-26 09:34N 55°12' E 013°43'9 8.9
2015-Aug-26 08:32N 55°13' E 013°28'9 8.8
2015-Aug-26 07:33N 55°14' E 013°13'9 8.9
2015-Aug-26 06:33N 55°15' E 012°57'9 8.7
2015-Aug-26 05:33N 55°17' E 012°42'7 6.9
2015-Aug-26 04:33N 55°24' E 012°39'9 8.8
2015-Aug-26 03:34N 55°32' E 012°42'10 9.5
2015-Aug-26 02:34N 55°42' E 012°41'9 8.8
2015-Aug-26 01:33N 55°51' E 012°39'9 8.7
2015-Aug-26 00:34N 55°59' E 012°38'8 8.2
2015-Aug-25 23:33N 56°07' E 012°31'9 8.9
2015-Aug-25 22:34N 56°12' E 012°18'9 8.7
2015-Aug-25 21:34N 56°17' E 012°05'8 7.7
2015-Aug-25 20:32N 56°24' E 012°00'7 7.3
2015-Aug-25 19:33N 56°31' E 011°57'7 7.3
2015-Aug-25 18:33N 56°38' E 011°55'7 7.2
2015-Aug-25 17:33N 56°45' E 011°52'8 8.1
2015-Aug-25 16:34N 56°53' E 011°46'8 7.6
2015-Aug-25 15:34N 57°00' E 011°42'8 7.7
2015-Aug-25 14:34N 57°08' E 011°37'8 8.2
2015-Aug-25 13:33N 57°15' E 011°32'8 8.2
2015-Aug-25 12:33N 57°23' E 011°27'8 7.7
2015-Aug-25 11:33N 57°30' E 011°21'8 7.7
2015-Aug-25 10:34N 57°35' E 011°09'8 7.6
2015-Aug-25 09:33N 57°40' E 010°59'8 7.5
2015-Aug-25 08:34N 57°45' E 010°49'6 6.4
2015-Aug-25 07:33N 57°47' E 010°38'7 7.0
2015-Aug-25 06:33N 57°48' E 010°25'126 6.6
2015-Aug-24 11:34N 58°05' E 006°30'7 6.8
2015-Aug-24 10:33N 58°10' E 006°20'7 6.9
2015-Aug-24 09:33N 58°14' E 006°10'6 6.4
2015-Aug-24 08:33N 58°18' E 006°00'6 6.1
2015-Aug-24 07:33N 58°22' E 005°51'22 7.2
2015-Aug-24 04:28N 58°39' E 005°23'6 6.8
2015-Aug-24 03:33N 58°44' E 005°16'8 7.7
2015-Aug-24 02:33N 58°50' E 005°08'9 8.6
2015-Aug-24 01:34N 58°58' E 004°59'8 7.8
2015-Aug-24 00:34N 59°04' E 004°52'7 7.4
2015-Aug-23 23:34N 59°11' E 004°44'9 8.8
2015-Aug-23 22:33N 59°19' E 004°40'32 8.0
2015-Aug-23 18:33N 59°51' E 004°40'8 7.9
2015-Aug-23 17:32N 59°59' E 004°40'  

Dump ship's entire track history